sensor_id;sensor_type;location;lat;lon;timestamp;P1;durP1;ratioP1;P2;durP2;ratioP2
32611;SDS011;19030;49.478;8.986;2023-02-15T00:01:41;27.45;;;13.38;;
32611;SDS011;19030;49.478;8.986;2023-02-15T00:03:42;25.60;;;12.27;;
32611;SDS011;19030;49.478;8.986;2023-02-15T00:05:43;24.58;;;12.88;;
32611;SDS011;19030;49.478;8.986;2023-02-15T00:07:43;26.05;;;14.00;;
32611;SDS011;19030;49.478;8.986;2023-02-15T00:09:47;25.45;;;13.73;;
32611;SDS011;19030;49.478;8.986;2023-02-15T00:11:48;32.67;;;15.82;;
32611;SDS011;19030;49.478;8.986;2023-02-15T00:13:52;26.48;;;12.90;;
32611;SDS011;19030;49.478;8.986;2023-02-15T00:15:52;28.73;;;15.05;;
32611;SDS011;19030;49.478;8.986;2023-02-15T00:30:53;29.20;;;14.63;;
32611;SDS011;19030;49.478;8.986;2023-02-15T00:32:53;26.67;;;13.13;;
32611;SDS011;19030;49.478;8.986;2023-02-15T00:34:54;27.10;;;13.10;;
32611;SDS011;19030;49.478;8.986;2023-02-15T00:36:54;26.33;;;13.88;;
32611;SDS011;19030;49.478;8.986;2023-02-15T00:38:55;24.48;;;13.57;;
32611;SDS011;19030;49.478;8.986;2023-02-15T00:40:56;27.05;;;13.18;;
32611;SDS011;19030;49.478;8.986;2023-02-15T00:42:58;25.05;;;13.15;;
32611;SDS011;19030;49.478;8.986;2023-02-15T00:44:59;25.40;;;12.68;;
32611;SDS011;19030;49.478;8.986;2023-02-15T00:47:02;25.65;;;13.57;;
32611;SDS011;19030;49.478;8.986;2023-02-15T00:49:03;23.98;;;13.13;;
32611;SDS011;19030;49.478;8.986;2023-02-15T00:51:04;25.08;;;13.50;;
32611;SDS011;19030;49.478;8.986;2023-02-15T00:53:05;25.88;;;13.73;;
32611;SDS011;19030;49.478;8.986;2023-02-15T00:55:06;22.70;;;12.45;;
32611;SDS011;19030;49.478;8.986;2023-02-15T00:57:07;24.75;;;13.35;;
32611;SDS011;19030;49.478;8.986;2023-02-15T00:59:08;27.17;;;13.40;;
32611;SDS011;19030;49.478;8.986;2023-02-15T01:01:10;21.65;;;11.77;;
32611;SDS011;19030;49.478;8.986;2023-02-15T01:03:16;25.73;;;12.68;;
32611;SDS011;19030;49.478;8.986;2023-02-15T01:05:18;24.38;;;12.32;;
32611;SDS011;19030;49.478;8.986;2023-02-15T01:07:19;23.27;;;12.90;;
32611;SDS011;19030;49.478;8.986;2023-02-15T01:09:20;27.15;;;13.60;;
32611;SDS011;19030;49.478;8.986;2023-02-15T01:11:21;24.95;;;13.43;;
32611;SDS011;19030;49.478;8.986;2023-02-15T01:13:24;25.65;;;13.32;;
32611;SDS011;19030;49.478;8.986;2023-02-15T01:15:24;24.75;;;13.70;;
32611;SDS011;19030;49.478;8.986;2023-02-15T01:17:26;27.55;;;14.18;;
32611;SDS011;19030;49.478;8.986;2023-02-15T01:19:26;26.45;;;14.25;;
32611;SDS011;19030;49.478;8.986;2023-02-15T01:21:27;26.92;;;14.70;;
32611;SDS011;19030;49.478;8.986;2023-02-15T01:23:28;25.33;;;13.77;;
32611;SDS011;19030;49.478;8.986;2023-02-15T01:25:28;28.77;;;14.57;;
32611;SDS011;19030;49.478;8.986;2023-02-15T01:27:29;28.92;;;14.68;;
32611;SDS011;19030;49.478;8.986;2023-02-15T01:29:32;27.80;;;13.35;;
32611;SDS011;19030;49.478;8.986;2023-02-15T01:31:33;26.17;;;12.80;;
32611;SDS011;19030;49.478;8.986;2023-02-15T01:33:34;26.35;;;13.85;;
32611;SDS011;19030;49.478;8.986;2023-02-15T01:35:36;25.55;;;13.15;;
32611;SDS011;19030;49.478;8.986;2023-02-15T01:37:37;26.13;;;14.07;;
32611;SDS011;19030;49.478;8.986;2023-02-15T01:39:38;26.52;;;14.45;;
32611;SDS011;19030;49.478;8.986;2023-02-15T01:41:38;28.10;;;15.18;;
32611;SDS011;19030;49.478;8.986;2023-02-15T01:43:43;28.45;;;13.50;;
32611;SDS011;19030;49.478;8.986;2023-02-15T01:45:46;26.42;;;14.32;;
32611;SDS011;19030;49.478;8.986;2023-02-15T01:47:58;26.60;;;15.02;;
32611;SDS011;19030;49.478;8.986;2023-02-15T01:52:35;25.60;;;14.15;;
32611;SDS011;19030;49.478;8.986;2023-02-15T01:54:39;23.00;;;13.20;;
32611;SDS011;19030;49.478;8.986;2023-02-15T01:56:42;24.80;;;13.23;;
32611;SDS011;19030;49.478;8.986;2023-02-15T01:58:43;25.35;;;13.73;;
32611;SDS011;19030;49.478;8.986;2023-02-15T02:00:44;25.52;;;13.40;;
32611;SDS011;19030;49.478;8.986;2023-02-15T02:02:45;25.70;;;13.50;;
32611;SDS011;19030;49.478;8.986;2023-02-15T02:04:50;24.83;;;13.35;;
32611;SDS011;19030;49.478;8.986;2023-02-15T02:06:52;26.02;;;14.60;;
32611;SDS011;19030;49.478;8.986;2023-02-15T02:08:54;26.65;;;13.63;;
32611;SDS011;19030;49.478;8.986;2023-02-15T02:10:56;24.77;;;13.80;;
32611;SDS011;19030;49.478;8.986;2023-02-15T02:12:58;29.92;;;14.38;;
32611;SDS011;19030;49.478;8.986;2023-02-15T02:15:02;26.23;;;14.35;;
32611;SDS011;19030;49.478;8.986;2023-02-15T02:17:15;26.23;;;14.27;;
32611;SDS011;19030;49.478;8.986;2023-02-15T02:24:09;28.75;;;15.63;;
32611;SDS011;19030;49.478;8.986;2023-02-15T02:26:44;24.70;;;13.10;;
32611;SDS011;19030;49.478;8.986;2023-02-15T02:33:54;27.88;;;14.65;;
32611;SDS011;19030;49.478;8.986;2023-02-15T02:37:39;26.52;;;14.32;;
32611;SDS011;19030;49.478;8.986;2023-02-15T02:39:13;26.30;;;14.00;;
32611;SDS011;19030;49.478;8.986;2023-02-15T02:44:13;25.90;;;14.63;;
32611;SDS011;19030;49.478;8.986;2023-02-15T02:46:26;25.88;;;13.23;;
32611;SDS011;19030;49.478;8.986;2023-02-15T02:48:33;28.00;;;14.73;;
32611;SDS011;19030;49.478;8.986;2023-02-15T02:50:34;26.83;;;14.35;;
32611;SDS011;19030;49.478;8.986;2023-02-15T02:52:42;24.45;;;14.02;;
32611;SDS011;19030;49.478;8.986;2023-02-15T02:54:43;25.35;;;13.77;;
32611;SDS011;19030;49.478;8.986;2023-02-15T02:56:45;26.40;;;13.40;;
32611;SDS011;19030;49.478;8.986;2023-02-15T02:58:50;29.13;;;14.73;;
32611;SDS011;19030;49.478;8.986;2023-02-15T03:01:01;28.75;;;15.70;;
32611;SDS011;19030;49.478;8.986;2023-02-15T03:03:30;28.15;;;14.38;;
32611;SDS011;19030;49.478;8.986;2023-02-15T03:05:44;28.48;;;14.32;;
32611;SDS011;19030;49.478;8.986;2023-02-15T03:07:49;26.80;;;14.48;;
32611;SDS011;19030;49.478;8.986;2023-02-15T03:09:52;29.05;;;15.57;;
32611;SDS011;19030;49.478;8.986;2023-02-15T03:11:54;26.23;;;14.82;;
32611;SDS011;19030;49.478;8.986;2023-02-15T03:13:56;28.63;;;15.60;;
32611;SDS011;19030;49.478;8.986;2023-02-15T03:15:58;28.02;;;15.10;;
32611;SDS011;19030;49.478;8.986;2023-02-15T03:18:20;25.75;;;14.13;;
32611;SDS011;19030;49.478;8.986;2023-02-15T03:20:29;30.83;;;15.95;;
32611;SDS011;19030;49.478;8.986;2023-02-15T03:22:57;28.38;;;15.43;;
32611;SDS011;19030;49.478;8.986;2023-02-15T03:25:09;27.13;;;14.27;;
32611;SDS011;19030;49.478;8.986;2023-02-15T03:27:17;26.05;;;14.70;;
32611;SDS011;19030;49.478;8.986;2023-02-15T03:29:22;27.05;;;15.32;;
32611;SDS011;19030;49.478;8.986;2023-02-15T03:31:28;24.50;;;13.15;;
32611;SDS011;19030;49.478;8.986;2023-02-15T03:33:32;28.25;;;15.57;;
32611;SDS011;19030;49.478;8.986;2023-02-15T03:35:46;26.35;;;14.63;;
32611;SDS011;19030;49.478;8.986;2023-02-15T03:39:59;23.80;;;13.43;;
32611;SDS011;19030;49.478;8.986;2023-02-15T03:42:28;26.70;;;14.88;;
32611;SDS011;19030;49.478;8.986;2023-02-15T03:44:41;26.20;;;14.50;;
32611;SDS011;19030;49.478;8.986;2023-02-15T03:47:17;25.48;;;14.38;;
32611;SDS011;19030;49.478;8.986;2023-02-15T03:49:27;28.30;;;15.40;;
32611;SDS011;19030;49.478;8.986;2023-02-15T03:51:40;26.38;;;14.68;;
32611;SDS011;19030;49.478;8.986;2023-02-15T03:53:43;27.30;;;14.52;;
32611;SDS011;19030;49.478;8.986;2023-02-15T03:55:49;26.42;;;14.82;;
32611;SDS011;19030;49.478;8.986;2023-02-15T03:57:53;29.38;;;16.02;;
32611;SDS011;19030;49.478;8.986;2023-02-15T04:00:14;27.02;;;15.10;;
32611;SDS011;19030;49.478;8.986;2023-02-15T04:02:41;25.42;;;14.52;;
32611;SDS011;19030;49.478;8.986;2023-02-15T04:05:08;23.92;;;14.63;;
32611;SDS011;19030;49.478;8.986;2023-02-15T04:07:09;25.90;;;15.18;;
32611;SDS011;19030;49.478;8.986;2023-02-15T04:09:10;23.90;;;14.15;;
32611;SDS011;19030;49.478;8.986;2023-02-15T04:11:30;26.40;;;14.98;;
32611;SDS011;19030;49.478;8.986;2023-02-15T04:13:31;24.70;;;13.77;;
32611;SDS011;19030;49.478;8.986;2023-02-15T04:15:32;26.20;;;14.77;;
32611;SDS011;19030;49.478;8.986;2023-02-15T04:17:51;25.27;;;13.80;;
32611;SDS011;19030;49.478;8.986;2023-02-15T04:19:52;26.80;;;14.13;;
32611;SDS011;19030;49.478;8.986;2023-02-15T04:22:11;25.92;;;14.27;;
32611;SDS011;19030;49.478;8.986;2023-02-15T04:24:30;24.95;;;14.10;;
32611;SDS011;19030;49.478;8.986;2023-02-15T04:26:50;28.13;;;14.80;;
32611;SDS011;19030;49.478;8.986;2023-02-15T04:28:53;28.20;;;15.55;;
32611;SDS011;19030;49.478;8.986;2023-02-15T04:30:54;29.65;;;15.73;;
32611;SDS011;19030;49.478;8.986;2023-02-15T04:32:55;27.13;;;15.20;;
32611;SDS011;19030;49.478;8.986;2023-02-15T04:34:57;26.85;;;15.23;;
32611;SDS011;19030;49.478;8.986;2023-02-15T04:36:57;26.67;;;13.68;;
32611;SDS011;19030;49.478;8.986;2023-02-15T04:38:58;27.15;;;14.35;;
32611;SDS011;19030;49.478;8.986;2023-02-15T04:40:58;29.90;;;14.80;;
32611;SDS011;19030;49.478;8.986;2023-02-15T04:42:59;27.15;;;14.50;;
32611;SDS011;19030;49.478;8.986;2023-02-15T04:44:59;26.13;;;14.85;;
32611;SDS011;19030;49.478;8.986;2023-02-15T04:47:00;29.17;;;14.45;;
32611;SDS011;19030;49.478;8.986;2023-02-15T04:49:00;26.65;;;14.75;;
32611;SDS011;19030;49.478;8.986;2023-02-15T04:51:05;26.10;;;14.60;;
32611;SDS011;19030;49.478;8.986;2023-02-15T04:53:06;28.13;;;14.88;;
32611;SDS011;19030;49.478;8.986;2023-02-15T04:55:07;27.83;;;15.15;;
32611;SDS011;19030;49.478;8.986;2023-02-15T04:57:08;28.65;;;15.05;;
32611;SDS011;19030;49.478;8.986;2023-02-15T04:59:10;26.67;;;13.10;;
32611;SDS011;19030;49.478;8.986;2023-02-15T05:01:11;29.15;;;15.60;;
32611;SDS011;19030;49.478;8.986;2023-02-15T05:03:11;27.42;;;15.32;;
32611;SDS011;19030;49.478;8.986;2023-02-15T05:05:12;27.85;;;15.05;;
32611;SDS011;19030;49.478;8.986;2023-02-15T05:07:15;26.05;;;14.68;;
32611;SDS011;19030;49.478;8.986;2023-02-15T05:09:15;26.50;;;15.00;;
32611;SDS011;19030;49.478;8.986;2023-02-15T05:11:16;29.63;;;15.60;;
32611;SDS011;19030;49.478;8.986;2023-02-15T05:13:17;25.30;;;14.50;;
32611;SDS011;19030;49.478;8.986;2023-02-15T05:15:17;24.75;;;13.43;;
32611;SDS011;19030;49.478;8.986;2023-02-15T05:17:18;26.63;;;14.00;;
32611;SDS011;19030;49.478;8.986;2023-02-15T05:19:18;27.23;;;14.57;;
32611;SDS011;19030;49.478;8.986;2023-02-15T05:21:19;23.83;;;13.48;;
32611;SDS011;19030;49.478;8.986;2023-02-15T05:23:20;27.50;;;15.38;;
32611;SDS011;19030;49.478;8.986;2023-02-15T05:25:21;24.08;;;14.75;;
32611;SDS011;19030;49.478;8.986;2023-02-15T05:27:39;27.85;;;15.40;;
32611;SDS011;19030;49.478;8.986;2023-02-15T05:29:59;26.60;;;14.63;;
32611;SDS011;19030;49.478;8.986;2023-02-15T05:31:59;26.08;;;15.00;;
32611;SDS011;19030;49.478;8.986;2023-02-15T05:34:00;28.30;;;14.77;;
32611;SDS011;19030;49.478;8.986;2023-02-15T05:36:01;26.40;;;13.98;;
32611;SDS011;19030;49.478;8.986;2023-02-15T05:38:02;27.77;;;14.85;;
32611;SDS011;19030;49.478;8.986;2023-02-15T05:40:03;25.85;;;13.77;;
32611;SDS011;19030;49.478;8.986;2023-02-15T05:42:04;29.73;;;15.43;;
32611;SDS011;19030;49.478;8.986;2023-02-15T05:44:04;24.40;;;13.60;;
32611;SDS011;19030;49.478;8.986;2023-02-15T05:46:05;25.58;;;13.55;;
32611;SDS011;19030;49.478;8.986;2023-02-15T05:48:06;24.20;;;13.57;;
32611;SDS011;19030;49.478;8.986;2023-02-15T05:50:07;24.90;;;13.85;;
32611;SDS011;19030;49.478;8.986;2023-02-15T05:52:08;29.17;;;15.82;;
32611;SDS011;19030;49.478;8.986;2023-02-15T05:54:08;28.42;;;15.70;;
32611;SDS011;19030;49.478;8.986;2023-02-15T05:56:09;27.90;;;16.30;;
32611;SDS011;19030;49.478;8.986;2023-02-15T05:58:11;27.70;;;15.77;;
32611;SDS011;19030;49.478;8.986;2023-02-15T06:00:12;28.50;;;14.15;;
32611;SDS011;19030;49.478;8.986;2023-02-15T06:02:13;28.98;;;15.60;;
32611;SDS011;19030;49.478;8.986;2023-02-15T06:04:14;30.17;;;15.50;;
32611;SDS011;19030;49.478;8.986;2023-02-15T06:06:15;28.35;;;14.40;;
32611;SDS011;19030;49.478;8.986;2023-02-15T06:08:16;27.35;;;14.25;;
32611;SDS011;19030;49.478;8.986;2023-02-15T06:10:16;26.27;;;13.65;;
32611;SDS011;19030;49.478;8.986;2023-02-15T06:12:17;28.13;;;14.45;;
32611;SDS011;19030;49.478;8.986;2023-02-15T06:14:17;27.25;;;14.07;;
32611;SDS011;19030;49.478;8.986;2023-02-15T06:16:18;27.33;;;14.10;;
32611;SDS011;19030;49.478;8.986;2023-02-15T06:18:18;25.50;;;14.35;;
32611;SDS011;19030;49.478;8.986;2023-02-15T06:20:19;26.67;;;14.10;;
32611;SDS011;19030;49.478;8.986;2023-02-15T06:22:20;26.58;;;13.65;;
32611;SDS011;19030;49.478;8.986;2023-02-15T06:24:20;26.08;;;13.43;;
32611;SDS011;19030;49.478;8.986;2023-02-15T06:26:21;25.85;;;14.25;;
32611;SDS011;19030;49.478;8.986;2023-02-15T06:28:21;24.25;;;13.48;;
32611;SDS011;19030;49.478;8.986;2023-02-15T06:30:22;22.60;;;12.55;;
32611;SDS011;19030;49.478;8.986;2023-02-15T06:32:23;25.23;;;13.38;;
32611;SDS011;19030;49.478;8.986;2023-02-15T06:34:23;22.52;;;12.32;;
32611;SDS011;19030;49.478;8.986;2023-02-15T06:36:24;26.33;;;14.02;;
32611;SDS011;19030;49.478;8.986;2023-02-15T06:38:24;23.05;;;13.07;;
32611;SDS011;19030;49.478;8.986;2023-02-15T06:40:25;26.23;;;14.07;;
32611;SDS011;19030;49.478;8.986;2023-02-15T06:42:25;25.67;;;13.60;;
32611;SDS011;19030;49.478;8.986;2023-02-15T06:44:26;24.85;;;14.07;;
32611;SDS011;19030;49.478;8.986;2023-02-15T06:46:27;25.60;;;13.52;;
32611;SDS011;19030;49.478;8.986;2023-02-15T06:48:28;25.52;;;13.85;;
32611;SDS011;19030;49.478;8.986;2023-02-15T06:50:28;25.67;;;13.70;;
32611;SDS011;19030;49.478;8.986;2023-02-15T06:52:29;25.63;;;13.88;;
32611;SDS011;19030;49.478;8.986;2023-02-15T06:54:30;25.33;;;13.93;;
32611;SDS011;19030;49.478;8.986;2023-02-15T06:56:30;22.60;;;13.18;;
32611;SDS011;19030;49.478;8.986;2023-02-15T06:58:31;25.90;;;14.05;;
32611;SDS011;19030;49.478;8.986;2023-02-15T07:00:37;25.15;;;13.63;;
32611;SDS011;19030;49.478;8.986;2023-02-15T07:02:38;26.83;;;15.10;;
32611;SDS011;19030;49.478;8.986;2023-02-15T07:04:38;30.55;;;14.98;;
32611;SDS011;19030;49.478;8.986;2023-02-15T07:06:39;24.42;;;14.35;;
32611;SDS011;19030;49.478;8.986;2023-02-15T07:08:40;25.73;;;14.57;;
32611;SDS011;19030;49.478;8.986;2023-02-15T07:10:43;26.75;;;14.45;;
32611;SDS011;19030;49.478;8.986;2023-02-15T07:12:44;25.35;;;14.10;;
32611;SDS011;19030;49.478;8.986;2023-02-15T07:14:45;24.52;;;14.10;;
32611;SDS011;19030;49.478;8.986;2023-02-15T07:16:46;25.40;;;13.77;;
32611;SDS011;19030;49.478;8.986;2023-02-15T07:18:46;27.23;;;14.10;;
32611;SDS011;19030;49.478;8.986;2023-02-15T07:20:47;25.38;;;13.07;;
32611;SDS011;19030;49.478;8.986;2023-02-15T07:22:47;24.17;;;12.98;;
32611;SDS011;19030;49.478;8.986;2023-02-15T07:24:49;26.02;;;13.60;;
32611;SDS011;19030;49.478;8.986;2023-02-15T07:26:49;24.80;;;13.57;;
32611;SDS011;19030;49.478;8.986;2023-02-15T07:28:50;24.75;;;13.50;;
32611;SDS011;19030;49.478;8.986;2023-02-15T07:30:50;22.73;;;12.45;;
32611;SDS011;19030;49.478;8.986;2023-02-15T07:32:54;25.23;;;13.57;;
32611;SDS011;19030;49.478;8.986;2023-02-15T07:35:14;23.98;;;12.65;;
32611;SDS011;19030;49.478;8.986;2023-02-15T07:37:15;25.70;;;12.82;;
32611;SDS011;19030;49.478;8.986;2023-02-15T07:39:15;26.20;;;14.10;;
32611;SDS011;19030;49.478;8.986;2023-02-15T07:41:16;27.60;;;14.68;;
32611;SDS011;19030;49.478;8.986;2023-02-15T07:43:17;26.63;;;14.18;;
32611;SDS011;19030;49.478;8.986;2023-02-15T07:45:17;23.40;;;12.45;;
32611;SDS011;19030;49.478;8.986;2023-02-15T07:47:18;30.33;;;16.00;;
32611;SDS011;19030;49.478;8.986;2023-02-15T07:49:19;24.38;;;13.05;;
32611;SDS011;19030;49.478;8.986;2023-02-15T07:51:19;27.83;;;14.73;;
32611;SDS011;19030;49.478;8.986;2023-02-15T07:53:20;26.92;;;13.82;;
32611;SDS011;19030;49.478;8.986;2023-02-15T07:55:20;31.58;;;15.77;;
32611;SDS011;19030;49.478;8.986;2023-02-15T07:57:21;29.50;;;15.23;;
32611;SDS011;19030;49.478;8.986;2023-02-15T07:59:21;30.27;;;16.55;;
32611;SDS011;19030;49.478;8.986;2023-02-15T08:03:26;28.10;;;14.93;;
32611;SDS011;19030;49.478;8.986;2023-02-15T08:05:28;25.73;;;15.10;;
32611;SDS011;19030;49.478;8.986;2023-02-15T08:07:29;31.23;;;15.43;;
32611;SDS011;19030;49.478;8.986;2023-02-15T08:09:30;31.45;;;15.23;;
32611;SDS011;19030;49.478;8.986;2023-02-15T08:11:31;31.17;;;16.55;;
32611;SDS011;19030;49.478;8.986;2023-02-15T08:13:36;27.38;;;15.10;;
32611;SDS011;19030;49.478;8.986;2023-02-15T08:15:53;29.13;;;15.75;;
32611;SDS011;19030;49.478;8.986;2023-02-15T08:17:53;28.52;;;15.93;;
32611;SDS011;19030;49.478;8.986;2023-02-15T08:19:54;29.58;;;16.92;;
32611;SDS011;19030;49.478;8.986;2023-02-15T08:21:56;27.05;;;15.45;;
32611;SDS011;19030;49.478;8.986;2023-02-15T08:23:58;28.73;;;15.52;;
32611;SDS011;19030;49.478;8.986;2023-02-15T08:25:59;29.67;;;17.48;;
32611;SDS011;19030;49.478;8.986;2023-02-15T08:28:00;29.15;;;16.10;;
32611;SDS011;19030;49.478;8.986;2023-02-15T08:30:00;28.10;;;15.73;;
32611;SDS011;19030;49.478;8.986;2023-02-15T08:32:03;28.13;;;14.68;;
32611;SDS011;19030;49.478;8.986;2023-02-15T08:34:09;28.48;;;16.30;;
32611;SDS011;19030;49.478;8.986;2023-02-15T08:36:12;30.83;;;16.13;;
32611;SDS011;19030;49.478;8.986;2023-02-15T08:38:15;30.98;;;16.63;;
32611;SDS011;19030;49.478;8.986;2023-02-15T08:40:15;32.28;;;17.00;;
32611;SDS011;19030;49.478;8.986;2023-02-15T08:42:16;30.23;;;16.50;;
32611;SDS011;19030;49.478;8.986;2023-02-15T08:44:17;33.30;;;17.85;;
32611;SDS011;19030;49.478;8.986;2023-02-15T08:46:19;30.50;;;16.52;;
32611;SDS011;19030;49.478;8.986;2023-02-15T08:48:20;28.15;;;16.45;;
32611;SDS011;19030;49.478;8.986;2023-02-15T08:50:21;29.17;;;15.40;;
32611;SDS011;19030;49.478;8.986;2023-02-15T08:52:21;30.83;;;17.83;;
32611;SDS011;19030;49.478;8.986;2023-02-15T08:54:22;33.83;;;17.65;;
32611;SDS011;19030;49.478;8.986;2023-02-15T08:56:24;29.83;;;16.92;;
32611;SDS011;19030;49.478;8.986;2023-02-15T08:58:28;32.08;;;16.83;;
32611;SDS011;19030;49.478;8.986;2023-02-15T09:00:30;29.45;;;16.15;;
32611;SDS011;19030;49.478;8.986;2023-02-15T09:02:31;28.88;;;16.38;;
32611;SDS011;19030;49.478;8.986;2023-02-15T09:04:31;31.77;;;17.60;;
32611;SDS011;19030;49.478;8.986;2023-02-15T09:06:32;31.00;;;16.58;;
32611;SDS011;19030;49.478;8.986;2023-02-15T09:08:33;31.02;;;16.92;;
32611;SDS011;19030;49.478;8.986;2023-02-15T09:10:33;33.03;;;18.35;;
32611;SDS011;19030;49.478;8.986;2023-02-15T09:12:34;35.42;;;19.13;;
32611;SDS011;19030;49.478;8.986;2023-02-15T09:14:34;30.65;;;18.17;;
32611;SDS011;19030;49.478;8.986;2023-02-15T09:16:36;30.05;;;16.52;;
32611;SDS011;19030;49.478;8.986;2023-02-15T09:18:38;30.65;;;15.70;;
32611;SDS011;19030;49.478;8.986;2023-02-15T09:20:39;28.88;;;16.17;;
32611;SDS011;19030;49.478;8.986;2023-02-15T09:22:40;30.25;;;17.67;;
32611;SDS011;19030;49.478;8.986;2023-02-15T09:24:40;32.80;;;16.75;;
32611;SDS011;19030;49.478;8.986;2023-02-15T09:26:41;29.35;;;16.85;;
32611;SDS011;19030;49.478;8.986;2023-02-15T09:28:45;28.88;;;16.38;;
32611;SDS011;19030;49.478;8.986;2023-02-15T09:30:46;31.08;;;18.23;;
32611;SDS011;19030;49.478;8.986;2023-02-15T09:32:47;29.38;;;16.92;;
32611;SDS011;19030;49.478;8.986;2023-02-15T09:34:48;33.22;;;19.00;;
32611;SDS011;19030;49.478;8.986;2023-02-15T09:36:48;29.88;;;16.77;;
32611;SDS011;19030;49.478;8.986;2023-02-15T09:39:03;34.13;;;19.02;;
32611;SDS011;19030;49.478;8.986;2023-02-15T09:43:48;28.65;;;17.00;;
32611;SDS011;19030;49.478;8.986;2023-02-15T09:52:53;32.08;;;17.73;;
32611;SDS011;19030;49.478;8.986;2023-02-15T09:57:47;29.77;;;15.93;;
32611;SDS011;19030;49.478;8.986;2023-02-15T10:00:01;30.30;;;16.70;;
32611;SDS011;19030;49.478;8.986;2023-02-15T10:02:20;27.33;;;14.98;;
32611;SDS011;19030;49.478;8.986;2023-02-15T10:17:32;27.90;;;15.68;;
32611;SDS011;19030;49.478;8.986;2023-02-15T10:19:38;25.15;;;14.77;;
32611;SDS011;19030;49.478;8.986;2023-02-15T10:22:15;26.15;;;14.95;;
32611;SDS011;19030;49.478;8.986;2023-02-15T10:26:54;26.30;;;13.93;;
32611;SDS011;19030;49.478;8.986;2023-02-15T10:29:05;24.50;;;13.93;;
32611;SDS011;19030;49.478;8.986;2023-02-15T10:31:24;27.48;;;15.70;;
32611;SDS011;19030;49.478;8.986;2023-02-15T10:35:44;27.33;;;15.10;;
32611;SDS011;19030;49.478;8.986;2023-02-15T10:40:25;29.15;;;16.67;;
32611;SDS011;19030;49.478;8.986;2023-02-15T10:42:53;33.97;;;18.73;;
32611;SDS011;19030;49.478;8.986;2023-02-15T10:44:58;25.80;;;15.50;;
32611;SDS011;19030;49.478;8.986;2023-02-15T10:55:18;22.13;;;13.75;;
32611;SDS011;19030;49.478;8.986;2023-02-15T10:57:31;22.73;;;13.75;;
32611;SDS011;19030;49.478;8.986;2023-02-15T10:59:47;25.88;;;15.52;;
32611;SDS011;19030;49.478;8.986;2023-02-15T11:02:01;25.42;;;14.25;;
32611;SDS011;19030;49.478;8.986;2023-02-15T11:06:49;25.45;;;15.75;;
32611;SDS011;19030;49.478;8.986;2023-02-15T11:08:54;26.88;;;16.25;;
32611;SDS011;19030;49.478;8.986;2023-02-15T11:11:00;25.52;;;15.43;;
32611;SDS011;19030;49.478;8.986;2023-02-15T11:13:16;25.10;;;14.85;;
32611;SDS011;19030;49.478;8.986;2023-02-15T11:17:38;28.25;;;15.80;;
32611;SDS011;19030;49.478;8.986;2023-02-15T11:19:55;26.17;;;15.65;;
32611;SDS011;19030;49.478;8.986;2023-02-15T11:21:59;27.15;;;15.73;;
32611;SDS011;19030;49.478;8.986;2023-02-15T11:24:10;25.48;;;15.85;;
32611;SDS011;19030;49.478;8.986;2023-02-15T11:26:16;28.05;;;17.23;;
32611;SDS011;19030;49.478;8.986;2023-02-15T11:28:34;26.23;;;15.82;;
32611;SDS011;19030;49.478;8.986;2023-02-15T11:30:42;28.15;;;16.13;;
32611;SDS011;19030;49.478;8.986;2023-02-15T11:32:46;27.90;;;15.98;;
32611;SDS011;19030;49.478;8.986;2023-02-15T11:35:11;24.63;;;15.15;;
32611;SDS011;19030;49.478;8.986;2023-02-15T11:37:32;24.13;;;14.77;;
32611;SDS011;19030;49.478;8.986;2023-02-15T11:39:36;27.52;;;15.32;;
32611;SDS011;19030;49.478;8.986;2023-02-15T11:41:38;23.88;;;14.68;;
32611;SDS011;19030;49.478;8.986;2023-02-15T11:45:49;24.23;;;14.52;;
32611;SDS011;19030;49.478;8.986;2023-02-15T11:47:50;23.33;;;14.77;;
32611;SDS011;19030;49.478;8.986;2023-02-15T11:49:51;25.42;;;14.88;;
32611;SDS011;19030;49.478;8.986;2023-02-15T11:51:52;23.75;;;15.13;;
32611;SDS011;19030;49.478;8.986;2023-02-15T11:53:54;23.20;;;14.30;;
32611;SDS011;19030;49.478;8.986;2023-02-15T11:55:56;23.23;;;14.98;;
32611;SDS011;19030;49.478;8.986;2023-02-15T11:58:01;27.45;;;14.55;;
32611;SDS011;19030;49.478;8.986;2023-02-15T12:02:18;21.95;;;14.07;;
32611;SDS011;19030;49.478;8.986;2023-02-15T12:04:35;23.00;;;14.27;;
32611;SDS011;19030;49.478;8.986;2023-02-15T12:06:46;27.23;;;17.52;;
32611;SDS011;19030;49.478;8.986;2023-02-15T12:08:56;23.35;;;14.95;;
32611;SDS011;19030;49.478;8.986;2023-02-15T12:11:07;23.75;;;16.88;;
32611;SDS011;19030;49.478;8.986;2023-02-15T12:15:14;20.65;;;13.65;;
32611;SDS011;19030;49.478;8.986;2023-02-15T12:17:31;22.90;;;14.95;;
32611;SDS011;19030;49.478;8.986;2023-02-15T12:19:37;19.98;;;14.05;;
32611;SDS011;19030;49.478;8.986;2023-02-15T12:21:42;20.30;;;13.13;;
32611;SDS011;19030;49.478;8.986;2023-02-15T12:23:53;20.92;;;14.38;;
32611;SDS011;19030;49.478;8.986;2023-02-15T12:26:00;21.67;;;14.90;;
32611;SDS011;19030;49.478;8.986;2023-02-15T12:28:01;21.85;;;13.38;;
32611;SDS011;19030;49.478;8.986;2023-02-15T12:32:19;23.17;;;15.07;;
32611;SDS011;19030;49.478;8.986;2023-02-15T12:34:32;20.60;;;14.80;;
32611;SDS011;19030;49.478;8.986;2023-02-15T12:36:43;19.85;;;14.80;;
32611;SDS011;19030;49.478;8.986;2023-02-15T12:43:32;19.98;;;14.73;;
32611;SDS011;19030;49.478;8.986;2023-02-15T12:45:35;17.63;;;13.20;;
32611;SDS011;19030;49.478;8.986;2023-02-15T12:47:37;18.50;;;13.65;;
32611;SDS011;19030;49.478;8.986;2023-02-15T12:49:37;17.95;;;14.18;;
32611;SDS011;19030;49.478;8.986;2023-02-15T12:51:42;18.17;;;13.23;;
32611;SDS011;19030;49.478;8.986;2023-02-15T12:53:44;21.25;;;15.88;;
32611;SDS011;19030;49.478;8.986;2023-02-15T12:55:58;21.40;;;14.27;;
32611;SDS011;19030;49.478;8.986;2023-02-15T12:58:07;18.15;;;14.25;;
32611;SDS011;19030;49.478;8.986;2023-02-15T13:04:27;21.50;;;15.85;;
32611;SDS011;19030;49.478;8.986;2023-02-15T13:06:30;17.38;;;13.38;;
32611;SDS011;19030;49.478;8.986;2023-02-15T13:13:11;19.30;;;15.00;;
32611;SDS011;19030;49.478;8.986;2023-02-15T13:15:26;18.40;;;14.27;;
32611;SDS011;19030;49.478;8.986;2023-02-15T13:17:34;18.45;;;13.20;;
32611;SDS011;19030;49.478;8.986;2023-02-15T13:19:42;17.90;;;13.50;;
32611;SDS011;19030;49.478;8.986;2023-02-15T13:21:47;19.45;;;14.63;;
32611;SDS011;19030;49.478;8.986;2023-02-15T13:23:55;21.95;;;14.00;;
32611;SDS011;19030;49.478;8.986;2023-02-15T13:26:02;18.45;;;13.77;;
32611;SDS011;19030;49.478;8.986;2023-02-15T13:28:04;18.50;;;14.13;;
32611;SDS011;19030;49.478;8.986;2023-02-15T13:30:14;17.88;;;13.40;;
32611;SDS011;19030;49.478;8.986;2023-02-15T13:32:28;18.13;;;13.20;;
32611;SDS011;19030;49.478;8.986;2023-02-15T13:34:40;19.00;;;13.15;;
32611;SDS011;19030;49.478;8.986;2023-02-15T13:39:14;16.27;;;12.43;;
32611;SDS011;19030;49.478;8.986;2023-02-15T13:41:39;18.50;;;14.25;;
32611;SDS011;19030;49.478;8.986;2023-02-15T13:46:14;18.25;;;14.25;;
32611;SDS011;19030;49.478;8.986;2023-02-15T13:55:19;17.50;;;12.73;;
32611;SDS011;19030;49.478;8.986;2023-02-15T14:00:16;18.35;;;14.25;;
32611;SDS011;19030;49.478;8.986;2023-02-15T14:07:00;18.85;;;13.10;;
32611;SDS011;19030;49.478;8.986;2023-02-15T14:11:37;16.42;;;11.57;;
32611;SDS011;19030;49.478;8.986;2023-02-15T14:18:56;14.57;;;11.07;;